createdAt,value
2023-04-02T00:01:38.950Z,7.70
2023-04-02T00:04:42.808Z,7.68
2023-04-02T00:07:51.805Z,7.64
2023-04-02T00:10:59.137Z,7.64
2023-04-02T00:14:04.681Z,7.61
2023-04-02T00:17:08.398Z,7.63
2023-04-02T00:20:18.079Z,7.62
2023-04-02T00:23:24.532Z,7.60
2023-04-02T00:26:33.951Z,7.58
2023-04-02T00:29:37.846Z,7.56
2023-04-02T00:32:41.954Z,7.56
2023-04-02T00:35:46.663Z,7.53
2023-04-02T00:38:52.828Z,7.52
2023-04-02T00:42:05.109Z,7.51
2023-04-02T00:45:23.225Z,7.49
2023-04-02T00:48:43.927Z,7.51
2023-04-02T00:51:54.576Z,7.48
2023-04-02T00:55:07.868Z,7.46
2023-04-02T00:58:26.579Z,7.43
2023-04-02T01:01:37.816Z,7.44
2023-04-02T01:04:42.954Z,7.47
2023-04-02T01:08:04.291Z,7.46
2023-04-02T01:11:33.232Z,7.45
2023-04-02T01:14:57.238Z,7.41
2023-04-02T01:18:26.939Z,7.39
2023-04-02T01:21:52.833Z,7.38
2023-04-02T01:24:59.629Z,7.35
2023-04-02T01:28:19.518Z,7.35
2023-04-02T01:31:27.727Z,7.36
2023-04-02T01:34:32.440Z,7.37
2023-04-02T01:37:49.513Z,7.37
2023-04-02T01:41:04.131Z,7.36
2023-04-02T01:44:13.331Z,7.31
2023-04-02T01:47:27.266Z,7.23
2023-04-02T01:50:37.350Z,7.15
2023-04-02T01:53:41.966Z,7.09
2023-04-02T01:56:48.352Z,7.02
2023-04-02T01:59:52.868Z,7.03
2023-04-02T02:03:01.213Z,7.02
2023-04-02T02:06:08.322Z,6.99
2023-04-02T02:09:23.118Z,6.95
2023-04-02T02:12:27.525Z,6.90
2023-04-02T02:15:35.245Z,6.90
2023-04-02T02:18:40.880Z,6.82
2023-04-02T02:21:50.610Z,6.77
2023-04-02T02:24:55.751Z,6.71
2023-04-02T02:28:07.258Z,6.67
2023-04-02T02:31:20.649Z,6.64
2023-04-02T02:34:38.837Z,6.62
2023-04-02T02:37:50.616Z,6.59
2023-04-02T02:41:02.562Z,6.55
2023-04-02T02:44:15.863Z,6.52
2023-04-02T02:47:26.755Z,6.49
2023-04-02T02:50:34.959Z,6.44
2023-04-02T02:53:53.148Z,6.44
2023-04-02T02:57:03.696Z,6.43
2023-04-02T03:00:13.021Z,6.39
2023-04-02T03:03:23.214Z,6.37
2023-04-02T03:06:34.074Z,6.34
2023-04-02T03:09:51.630Z,6.31
2023-04-02T03:13:09.134Z,6.26
2023-04-02T03:16:23.064Z,6.21
2023-04-02T03:19:36.922Z,6.20
2023-04-02T03:22:52.295Z,6.17
2023-04-02T03:26:05.787Z,6.12
2023-04-02T03:29:18.772Z,6.10
2023-04-02T03:32:30.603Z,6.07
2023-04-02T03:35:43.367Z,6.03
2023-04-02T03:38:55.287Z,5.99
2023-04-02T03:42:09.110Z,5.94
2023-04-02T03:45:21.254Z,5.93
2023-04-02T03:48:36.035Z,5.92
2023-04-02T03:51:53.762Z,5.86
2023-04-02T03:55:03.823Z,5.80
2023-04-02T03:58:17.646Z,5.78
2023-04-02T04:01:32.219Z,5.74
2023-04-02T04:04:42.086Z,5.76
2023-04-02T04:07:47.089Z,5.73
2023-04-02T04:10:57.390Z,5.74
2023-04-02T04:14:08.340Z,5.72
2023-04-02T04:17:24.622Z,5.67
2023-04-02T04:20:41.913Z,5.69
2023-04-02T04:23:52.813Z,5.66
2023-04-02T04:27:10.166Z,5.62
2023-04-02T04:30:27.821Z,5.57
2023-04-02T04:33:40.861Z,5.56
2023-04-02T04:36:55.193Z,5.53
2023-04-02T04:40:17.636Z,5.52
2023-04-02T04:43:39.405Z,5.52
2023-04-02T04:46:50.747Z,5.52
2023-04-02T04:50:01.981Z,5.49
2023-04-02T04:53:17.740Z,5.46
2023-04-02T04:56:27.997Z,5.38
2023-04-02T04:59:50.998Z,5.34
2023-04-02T05:03:06.907Z,5.30
2023-04-02T05:06:27.161Z,5.25
2023-04-02T05:09:37.595Z,5.22
2023-04-02T05:12:49.872Z,5.19
2023-04-02T05:16:12.115Z,5.10
2023-04-02T05:19:25.227Z,4.99
2023-04-02T05:22:41.314Z,4.97
2023-04-02T05:25:56.274Z,4.95
2023-04-02T05:29:10.490Z,4.89
2023-04-02T05:32:25.009Z,4.85
2023-04-02T05:35:33.466Z,4.82
2023-04-02T05:38:41.069Z,4.81
2023-04-02T05:41:47.934Z,4.83
2023-04-02T05:45:26.036Z,4.84
2023-04-02T05:48:40.484Z,4.79
2023-04-02T05:51:52.143Z,4.73
2023-04-02T05:55:07.019Z,4.71
2023-04-02T06:01:47.888Z,4.52
2023-04-02T06:05:05.491Z,4.42
2023-04-02T06:08:19.806Z,4.33
2023-04-02T06:11:30.820Z,4.24
2023-04-02T06:14:37.387Z,4.17
2023-04-02T06:17:49.550Z,4.15
2023-04-02T06:20:56.491Z,4.08
2023-04-02T06:24:06.805Z,4.04
2023-04-02T06:27:20.118Z,4.00
2023-04-02T06:30:31.280Z,3.94
2023-04-02T06:33:34.998Z,3.83
2023-04-02T06:36:41.239Z,3.84
2023-04-02T06:39:46.513Z,3.84
2023-04-02T06:42:59.749Z,3.84
2023-04-02T06:46:29.764Z,3.81
2023-04-02T06:49:45.468Z,3.87
2023-04-02T06:52:54.934Z,3.90
2023-04-02T06:56:07.299Z,3.90
2023-04-02T06:59:12.900Z,3.89
2023-04-02T07:02:31.162Z,3.83
2023-04-02T07:05:36.712Z,3.79
2023-04-02T07:08:42.226Z,3.80
2023-04-02T07:11:46.442Z,3.83
2023-04-02T07:14:50.800Z,3.86
2023-04-02T07:17:57.198Z,3.91
2023-04-02T07:21:01.871Z,3.99
2023-04-02T07:24:07.794Z,4.02
2023-04-02T07:27:12.168Z,4.15
2023-04-02T07:30:16.173Z,4.30
2023-04-02T07:33:23.710Z,4.47
2023-04-02T07:36:30.786Z,4.63
2023-04-02T07:39:37.810Z,4.79
2023-04-02T07:42:42.681Z,4.90
2023-04-02T07:45:46.524Z,4.99
2023-04-02T07:48:50.065Z,5.04
2023-04-02T07:51:54.077Z,5.02
2023-04-02T07:54:59.014Z,5.07
2023-04-02T07:58:03.105Z,5.05
2023-04-02T08:01:14.854Z,4.96
2023-04-02T08:04:21.458Z,4.94
2023-04-02T08:07:25.086Z,4.98
2023-04-02T08:10:30.881Z,5.00
2023-04-02T08:13:34.659Z,5.03
2023-04-02T08:16:50.156Z,5.05
2023-04-02T08:19:56.298Z,5.11
2023-04-02T08:23:01.062Z,5.07
2023-04-02T08:26:08.488Z,5.01
2023-04-02T08:29:12.561Z,4.95
2023-04-02T08:32:17.348Z,4.87
2023-04-02T08:35:21.076Z,4.81
2023-04-02T08:38:24.770Z,4.71
2023-04-02T08:41:32.237Z,4.68
2023-04-02T08:45:10.880Z,4.69
2023-04-02T08:48:24.904Z,4.69
2023-04-02T08:51:32.510Z,4.69
2023-04-02T08:54:38.588Z,4.69
2023-04-02T08:57:55.528Z,4.77
2023-04-02T09:01:04.511Z,4.91
2023-04-02T09:04:19.030Z,4.92
2023-04-02T09:07:23.251Z,4.91
2023-04-02T09:10:40.382Z,4.92
2023-04-02T09:13:48.470Z,4.93
2023-04-02T09:16:56.771Z,4.94
2023-04-02T09:20:17.930Z,4.96
2023-04-02T09:23:27.064Z,4.97
2023-04-02T09:26:34.137Z,4.95
2023-04-02T09:29:45.257Z,4.95
2023-04-02T09:32:53.223Z,4.94
2023-04-02T09:35:58.582Z,4.89
2023-04-02T09:39:08.340Z,4.88
2023-04-02T09:42:34.056Z,4.93
2023-04-02T09:45:40.622Z,5.03
2023-04-02T09:48:53.517Z,5.13
2023-04-02T09:52:22.031Z,5.15
2023-04-02T09:55:29.226Z,5.24
2023-04-02T09:58:33.276Z,5.28
2023-04-02T10:01:40.866Z,5.25
2023-04-02T10:04:48.097Z,5.30
2023-04-02T10:07:54.740Z,5.38
2023-04-02T10:11:05.200Z,5.51
2023-04-02T10:14:20.294Z,5.50
2023-04-02T10:17:33.731Z,5.61
2023-04-02T10:20:50.985Z,5.92
2023-04-02T10:23:55.804Z,6.07
2023-04-02T10:27:17.712Z,6.06
2023-04-02T10:30:27.548Z,6.28
2023-04-02T10:33:39.840Z,6.50
2023-04-02T10:36:54.480Z,6.58
2023-04-02T10:40:05.282Z,6.53
2023-04-02T10:44:16.725Z,6.45
2023-04-02T10:47:44.721Z,6.44
2023-04-02T10:51:00.691Z,6.52
2023-04-02T10:54:23.314Z,6.49
2023-04-02T10:57:39.420Z,6.37
2023-04-02T11:00:48.467Z,6.33
2023-04-02T11:03:58.660Z,6.34
2023-04-02T11:07:14.276Z,6.21
2023-04-02T11:10:21.459Z,6.05
2023-04-02T11:13:32.607Z,5.96
2023-04-02T11:16:39.398Z,5.92
2023-04-02T11:19:47.142Z,5.82
2023-04-02T11:26:41.476Z,5.55
2023-04-02T11:29:47.945Z,5.47
2023-04-02T11:32:52.034Z,5.37
2023-04-02T11:35:56.837Z,5.44
2023-04-02T11:39:14.676Z,5.53
2023-04-02T11:42:32.242Z,5.62
2023-04-02T11:45:58.671Z,5.82
2023-04-02T11:49:40.104Z,6.02
2023-04-02T11:53:03.900Z,6.02
2023-04-02T11:56:21.062Z,5.83
2023-04-02T11:59:39.181Z,5.66
2023-04-02T12:03:08.547Z,5.48
2023-04-02T12:06:27.476Z,5.37
2023-04-02T12:09:44.581Z,5.29
2023-04-02T12:12:48.724Z,5.27
2023-04-02T12:15:58.768Z,5.31
2023-04-02T12:19:03.522Z,5.29
2023-04-02T12:22:20.048Z,5.29
2023-04-02T12:25:31.828Z,5.25
2023-04-02T12:28:38.002Z,5.19
2023-04-02T12:31:46.044Z,5.12
2023-04-02T12:34:50.449Z,5.11
2023-04-02T12:37:54.852Z,5.13
2023-04-02T12:41:01.794Z,5.22
2023-04-02T12:44:11.604Z,5.26
2023-04-02T12:47:16.891Z,5.32
2023-04-02T12:50:22.514Z,5.30
2023-04-02T12:53:34.294Z,5.27
2023-04-02T12:56:37.829Z,5.21
2023-04-02T12:59:44.019Z,5.17
2023-04-02T13:02:52.887Z,5.14
2023-04-02T13:05:58.629Z,5.11
2023-04-02T13:09:05.320Z,5.17
2023-04-02T13:12:33.499Z,5.25
2023-04-02T13:15:37.186Z,5.23
2023-04-02T13:18:44.808Z,5.08
2023-04-02T13:21:48.589Z,5.01
2023-04-02T13:24:57.395Z,4.97
2023-04-02T13:28:00.943Z,5.00
2023-04-02T13:31:04.691Z,5.03
2023-04-02T13:34:09.772Z,4.98
2023-04-02T13:37:14.367Z,5.01
2023-04-02T13:40:20.844Z,5.07
2023-04-02T13:43:25.448Z,5.09
2023-04-02T13:46:31.748Z,5.06
2023-04-02T13:49:37.119Z,5.09
2023-04-02T13:52:40.885Z,5.28
2023-04-02T13:55:44.755Z,5.66
2023-04-02T13:58:48.286Z,5.98
2023-04-02T14:01:57.091Z,6.09
2023-04-02T14:05:20.494Z,6.06
2023-04-02T14:08:43.037Z,5.85
2023-04-02T14:12:06.252Z,5.71
2023-04-02T14:15:31.310Z,5.61
2023-04-02T14:18:58.141Z,5.57
2023-04-02T14:22:26.683Z,5.54
2023-04-02T14:25:46.704Z,5.49
2023-04-02T14:29:07.315Z,5.48
2023-04-02T14:32:20.560Z,5.52
2023-04-02T14:35:32.281Z,5.57
2023-04-02T14:38:51.834Z,5.47
2023-04-02T14:42:03.922Z,5.36
2023-04-02T14:45:20.851Z,5.21
2023-04-02T14:48:42.566Z,5.10
2023-04-02T14:51:52.009Z,5.03
2023-04-02T14:55:04.279Z,4.96
2023-04-02T14:58:20.400Z,4.86
2023-04-02T15:01:36.368Z,4.77
2023-04-02T15:04:47.232Z,4.67
2023-04-02T15:07:58.962Z,4.52
2023-04-02T15:11:12.185Z,4.43
2023-04-02T15:14:22.396Z,4.36
2023-04-02T15:17:26.073Z,4.30
2023-04-02T15:20:41.189Z,4.29
2023-04-02T15:24:01.701Z,4.24
2023-04-02T15:27:34.878Z,4.26
2023-04-02T15:30:42.658Z,4.25
2023-04-02T15:33:53.180Z,4.23
2023-04-02T15:37:18.401Z,4.24
2023-04-02T15:40:45.675Z,4.24
2023-04-02T15:44:04.460Z,4.23
2023-04-02T15:47:25.158Z,4.26
2023-04-02T15:50:48.245Z,4.30
2023-04-02T15:54:10.960Z,4.30
2023-04-02T15:57:36.499Z,4.24
2023-04-02T16:00:52.861Z,4.23
2023-04-02T16:04:20.862Z,4.21
2023-04-02T16:07:51.812Z,4.17
2023-04-02T16:10:55.550Z,4.12
2023-04-02T16:14:16.945Z,4.10
2023-04-02T16:17:34.875Z,4.03
2023-04-02T16:20:47.292Z,4.01
2023-04-02T16:23:52.390Z,4.01
2023-04-02T16:27:11.639Z,3.99
2023-04-02T16:30:48.005Z,3.96
2023-04-02T16:34:05.231Z,3.93
2023-04-02T16:37:27.661Z,3.90
2023-04-02T16:40:41.822Z,3.92
2023-04-02T16:44:01.582Z,3.91
2023-04-02T16:47:30.577Z,3.95
2023-04-02T16:50:53.321Z,3.92
2023-04-02T16:54:11.372Z,3.87
2023-04-02T16:57:31.363Z,3.83
2023-04-02T17:00:47.672Z,3.81
2023-04-02T17:04:46.594Z,3.75
2023-04-02T17:08:03.960Z,3.71
2023-04-02T17:11:11.009Z,3.70
2023-04-02T17:14:32.637Z,3.67
2023-04-02T17:17:36.642Z,3.66
2023-04-02T17:20:41.461Z,3.66
2023-04-02T17:23:56.256Z,3.68
2023-04-02T17:27:07.332Z,3.66
2023-04-02T17:30:18.744Z,3.67
2023-04-02T17:33:26.679Z,3.67
2023-04-02T17:36:45.260Z,3.67
2023-04-02T17:40:07.247Z,3.63
2023-04-02T17:43:31.797Z,3.65
2023-04-02T17:46:40.703Z,3.67
2023-04-02T17:50:00.542Z,3.68
2023-04-02T17:53:23.538Z,3.67
2023-04-02T17:56:59.283Z,3.60
2023-04-02T18:00:22.330Z,3.53
2023-04-02T18:04:16.738Z,3.46
2023-04-02T18:07:40.255Z,3.42
2023-04-02T18:11:02.484Z,3.42
2023-04-02T18:14:29.602Z,3.40
2023-04-02T18:17:49.034Z,3.37
2023-04-02T18:21:08.892Z,3.35
2023-04-02T18:24:39.085Z,3.31
2023-04-02T18:28:07.773Z,3.26
2023-04-02T18:31:28.982Z,3.24
2023-04-02T18:34:56.554Z,3.24
2023-04-02T18:38:20.280Z,3.20
2023-04-02T18:41:45.945Z,3.21
2023-04-02T18:45:03.623Z,3.22
2023-04-02T18:48:30.054Z,3.23
2023-04-02T18:51:39.642Z,3.23
2023-04-02T18:54:49.977Z,3.19
2023-04-02T18:58:05.070Z,3.16
2023-04-02T19:01:15.505Z,3.19
2023-04-02T19:04:28.541Z,3.17
2023-04-02T19:07:40.150Z,3.18
2023-04-02T19:10:46.504Z,3.20
2023-04-02T19:13:51.414Z,3.22
2023-04-02T19:17:20.205Z,3.22
2023-04-02T19:20:38.707Z,3.20
2023-04-02T19:24:11.616Z,3.20
2023-04-02T19:27:31.141Z,3.20
2023-04-02T19:30:53.847Z,3.18
2023-04-02T19:34:09.385Z,3.17
2023-04-02T19:37:24.751Z,3.15
2023-04-02T19:40:44.771Z,3.16
2023-04-02T19:43:48.605Z,3.17
2023-04-02T19:46:52.629Z,3.15
2023-04-02T19:49:57.596Z,3.12
2023-04-02T19:53:02.656Z,3.07
2023-04-02T19:56:06.388Z,3.05
2023-04-02T19:59:18.160Z,3.03
2023-04-02T20:02:22.350Z,2.97
2023-04-02T20:05:26.334Z,2.92
2023-04-02T20:08:31.931Z,2.81
2023-04-02T20:11:37.426Z,2.71
2023-04-02T20:14:41.452Z,2.60
2023-04-02T20:17:45.163Z,2.52
2023-04-02T20:20:49.605Z,2.45
2023-04-02T20:23:56.052Z,2.40
2023-04-02T20:26:59.658Z,2.35
2023-04-02T20:30:03.644Z,2.30
2023-04-02T20:33:07.171Z,2.27
2023-04-02T20:36:13.719Z,2.25
2023-04-02T20:39:19.502Z,2.18
2023-04-02T20:42:23.498Z,2.18
2023-04-02T20:45:29.298Z,2.13
2023-04-02T20:48:34.925Z,2.11
2023-04-02T20:51:38.576Z,2.03
2023-04-02T20:54:43.746Z,2.02
2023-04-02T20:57:47.576Z,2.01
2023-04-02T21:00:51.966Z,1.99
2023-04-02T21:03:57.940Z,2.00
2023-04-02T21:07:01.728Z,1.98
2023-04-02T21:10:07.870Z,1.98
2023-04-02T21:13:11.679Z,2.00
2023-04-02T21:16:20.131Z,2.01
2023-04-02T21:19:24.557Z,2.01
2023-04-02T21:22:28.256Z,2.01
2023-04-02T21:25:33.614Z,1.98
2023-04-02T21:28:37.305Z,1.97
2023-04-02T21:31:43.316Z,1.95
2023-04-02T21:34:46.857Z,2.00
2023-04-02T21:37:51.278Z,2.03
2023-04-02T21:40:56.558Z,2.06
2023-04-02T21:44:03.210Z,2.09
2023-04-02T21:47:07.223Z,2.12
2023-04-02T21:50:11.748Z,2.10
2023-04-02T21:53:15.724Z,2.13
2023-04-02T21:56:23.001Z,2.11
2023-04-02T21:59:26.601Z,2.15
2023-04-02T22:02:30.725Z,2.18
2023-04-02T22:05:34.363Z,2.21
2023-04-02T22:08:41.288Z,2.20
2023-04-02T22:11:49.339Z,2.20
2023-04-02T22:14:53.108Z,2.23
2023-04-02T22:17:56.631Z,2.25
2023-04-02T22:21:02.255Z,2.25
2023-04-02T22:24:09.572Z,2.26
2023-04-02T22:27:14.728Z,2.28
2023-04-02T22:30:18.498Z,2.27
2023-04-02T22:33:22.708Z,2.29
2023-04-02T22:36:29.219Z,2.27
2023-04-02T22:39:33.119Z,2.28
2023-04-02T22:42:38.519Z,2.28
2023-04-02T22:45:46.122Z,2.28
2023-04-02T22:48:51.302Z,2.25
2023-04-02T22:51:55.193Z,2.22
2023-04-02T22:54:58.697Z,2.20
2023-04-02T22:58:03.989Z,2.19
2023-04-02T23:01:10.458Z,2.19
2023-04-02T23:04:14.383Z,2.15
2023-04-02T23:07:18.196Z,2.11
2023-04-02T23:10:22.381Z,2.07
2023-04-02T23:13:27.392Z,2.06
2023-04-02T23:16:31.679Z,2.05
2023-04-02T23:19:35.691Z,2.07
2023-04-02T23:22:39.847Z,2.05
2023-04-02T23:25:43.588Z,2.03
2023-04-02T23:28:49.376Z,2.04
2023-04-02T23:31:53.029Z,2.05
2023-04-02T23:34:56.942Z,1.99
2023-04-02T23:38:00.543Z,1.96
2023-04-02T23:41:04.523Z,1.94
2023-04-02T23:44:10.897Z,1.92
2023-04-02T23:47:14.672Z,1.94
2023-04-02T23:50:18.557Z,1.96
2023-04-02T23:53:22.366Z,1.97
2023-04-02T23:56:27.234Z,1.96
2023-04-02T23:59:32.581Z,1.98
